Quartz Hill, California
Current Conditions -  °F | °C
As of 6:53 PM on Friday 21 Nov 2014 (Local Time) from KPMD Reporting Station
Clear Clear  
Wind Chill:   Ceiling: Unl
Heat Index:   Visibility: 10mi
Dew Point:   Wind: 3mph
Humidity: 69%   Direction: 260°W
Pressure: 30.08"   Gusts: NA
Location:  34.5959°N, 118.235°W
Report Text: KPMD 220253Z 26003KT 10SM CLR 09/04 A3008 RMK AO2 SLP182 T00940039 53021
Loading
Personal Weather Stations






























Interactive Weather Map New forecast layout! Learn more

10-Day Weather Forecast

Advertisements
Track Severe Weather on mobile